Time;durP1;ratioP1;P1;durP2;ratioP2;P2;SDS_P1;SDS_P2;PMS_P1;PMS_P2;Temp;Humidity;BMP_temperature;BMP_pressure;BME280_temperature;BME280_humidity;BME280_pressure;Samples;Min_cycle;Max_cycle;Signal;HPM_P1;HPM_P2
2022/11/14 00:00:09;;;;;;;16.85;11.27;;;;;;;9.96;100.00;99088.50;5088211;28;20089;-64
2022/11/14 00:02:35;;;;;;;20.27;11.48;;;;;;;10.02;100.00;99087.19;5115703;27;20711;-62
2022/11/14 00:05:00;;;;;;;15.38;10.52;;;;;;;9.99;100.00;99093.44;5102189;27;20034;-61
2022/11/14 00:07:29;;;;;;;16.73;11.25;;;;;;;9.94;100.00;99087.00;5127658;27;20032;-65
2022/11/14 00:09:54;;;;;;;16.95;11.15;;;;;;;9.94;100.00;99082.59;5097354;28;20062;-63
2022/11/14 00:12:20;;;;;;;17.45;11.75;;;;;;;9.94;100.00;99071.41;5096903;28;20780;-63
2022/11/14 00:14:45;;;;;;;17.70;11.68;;;;;;;9.73;100.00;99035.06;5092181;28;20128;-61
2022/11/14 00:17:10;;;;;;;18.80;11.55;;;;;;;9.95;100.00;99071.28;5097776;28;20115;-63
2022/11/14 00:19:36;;;;;;;16.52;10.88;;;;;;;9.90;100.00;99050.06;5078926;28;20455;-63
2022/11/14 00:22:02;;;;;;;17.20;11.43;;;;;;;9.83;100.00;99041.13;5102287;27;20023;-62
2022/11/14 00:24:27;;;;;;;16.88;11.70;;;;;;;10.00;100.00;99063.94;5069949;28;20472;-61
2022/11/14 00:26:53;;;;;;;15.15;9.95;;;;;;;9.79;100.00;99021.56;5093306;28;20050;-59
2022/11/14 00:29:18;;;;;;;16.98;9.82;;;;;;;10.00;100.00;99063.06;5111663;27;20040;-59
2022/11/14 00:31:44;;;;;;;13.30;8.73;;;;;;;9.92;100.00;99061.13;5093190;28;20061;-60
2022/11/14 00:34:09;;;;;;;13.02;7.60;;;;;;;9.90;100.00;99057.84;5084369;28;20035;-63
2022/11/14 00:36:35;;;;;;;13.80;7.63;;;;;;;9.82;100.00;99058.50;5089748;28;20332;-60
2022/11/14 00:39:01;;;;;;;11.80;8.10;;;;;;;9.85;100.00;99054.00;5094890;27;20558;-66
2022/11/14 00:41:26;;;;;;;11.65;6.95;;;;;;;9.92;100.00;99061.13;5096556;28;20036;-62
2022/11/14 00:43:52;;;;;;;11.57;7.30;;;;;;;9.94;100.00;99066.22;5092445;28;21244;-62
2022/11/14 00:46:17;;;;;;;10.68;6.93;;;;;;;9.84;100.00;99060.13;5079559;28;20027;-63
2022/11/14 00:48:43;;;;;;;12.20;6.78;;;;;;;9.78;100.00;99058.88;5094747;28;20145;-60
2022/11/14 00:51:08;;;;;;;11.18;6.75;;;;;;;9.75;100.00;99056.56;5110294;27;20084;-60
2022/11/14 00:53:34;;;;;;;11.95;7.15;;;;;;;9.66;100.00;99060.75;5081324;28;20040;-62
2022/11/14 00:55:59;;;;;;;12.93;7.10;;;;;;;9.82;100.00;99063.69;5113259;27;20038;-63
2022/11/14 00:58:25;;;;;;;11.20;6.75;;;;;;;9.72;100.00;99059.41;5097603;28;20760;-62
2022/11/14 01:00:51;;;;;;;10.70;6.13;;;;;;;9.71;100.00;99066.38;5114497;27;20032;-63
2022/11/14 01:03:16;;;;;;;9.32;6.30;;;;;;;9.88;100.00;99059.75;5095486;28;20032;-64
2022/11/14 01:05:44;;;;;;;10.27;6.47;;;;;;;9.72;100.00;99060.22;5080701;28;20069;-62
2022/11/14 01:08:10;;;;;;;11.95;7.65;;;;;;;9.78;100.00;99070.09;5096040;28;20492;-64
2022/11/14 01:10:43;;;;;;;13.70;7.97;;;;;;;9.79;100.00;99068.31;5104551;27;20064;-63
2022/11/14 01:13:09;;;;;;;12.18;7.18;;;;;;;9.79;100.00;99060.53;5120183;27;20104;-62
2022/11/14 01:15:39;;;;;;;15.82;8.48;;;;;;;9.67;100.00;99053.75;5093473;28;20031;-61
2022/11/14 01:18:04;;;;;;;;;;;;;;;9.73;100.00;99061.03;5085576;28;20058;-63
2022/11/14 01:20:30;;;;;;;14.18;8.38;;;;;;;9.73;100.00;99058.44;5096931;28;19911;-64
2022/11/14 01:22:55;;;;;;;15.70;8.77;;;;;;;9.76;100.00;99058.19;5077324;28;20130;-61
2022/11/14 01:25:20;;;;;;;14.10;8.82;;;;;;;9.76;100.00;99053.00;5085891;28;20031;-62
2022/11/14 01:27:46;;;;;;;13.60;8.15;;;;;;;9.75;100.00;99062.56;5097309;27;20078;-64
2022/11/14 01:30:12;;;;;;;13.18;8.00;;;;;;;9.78;100.00;99056.28;5075242;28;20656;-62
2022/11/14 01:32:37;;;;;;;14.68;9.05;;;;;;;9.56;100.00;99019.13;5099580;28;20028;-60
2022/11/14 01:35:03;;;;;;;14.63;9.10;;;;;;;9.77;100.00;99052.88;5093788;28;20031;-60
2022/11/14 01:37:28;;;;;;;16.25;9.15;;;;;;;9.75;100.00;99048.75;5088661;28;20031;-61
2022/11/14 01:39:54;;;;;;;12.77;7.97;;;;;;;9.54;100.00;99039.19;5076483;28;20119;-63
2022/11/14 01:42:19;;;;;;;11.93;7.60;;;;;;;9.57;100.00;99041.53;5092779;28;20127;-63
2022/11/14 01:44:49;;;;;;;12.40;7.53;;;;;;;9.57;100.00;99040.72;5078444;28;20058;-64
2022/11/14 01:47:26;;;;;;;12.80;7.88;;;;;;;9.65;100.00;99040.91;5074398;28;20074;-61
2022/11/14 01:49:58;;;;;;;13.80;7.95;;;;;;;9.73;100.00;99038.50;5099056;28;20126;-60
2022/11/14 01:52:35;;;;;;;12.73;8.13;;;;;;;9.73;100.00;99043.69;5068971;28;20683;-60
2022/11/14 01:55:04;;;;;;;14.55;8.30;;;;;;;9.47;100.00;98995.72;5078025;28;20067;-60
2022/11/14 01:57:52;;;;;;;12.93;8.32;;;;;;;9.70;100.00;99037.94;5076113;28;20050;-62
2022/11/14 02:00:18;;;;;;;13.57;8.30;;;;;;;9.68;100.00;99032.88;5097582;28;20120;-63
2022/11/14 02:02:44;;;;;;;14.38;8.65;;;;;;;9.66;100.00;99028.75;5099731;28;20633;-64
2022/11/14 02:05:12;;;;;;;12.60;8.20;;;;;;;9.69;100.00;99031.94;5098234;28;20133;-62
2022/11/14 02:07:39;;;;;;;14.25;8.27;;;;;;;9.65;100.00;99027.91;5074998;28;20065;-59
2022/11/14 02:10:08;;;;;;;13.68;7.70;;;;;;;9.50;100.00;98995.47;5116399;27;20062;-59
2022/11/14 02:12:34;;;;;;;13.90;8.80;;;;;;;9.72;100.00;99033.44;5075485;28;20673;-58
2022/11/14 02:15:00;;;;;;;12.82;7.60;;;;;;;9.71;100.00;99029.16;5080660;28;20028;-61
2022/11/14 02:17:25;;;;;;;12.40;7.68;;;;;;;9.81;100.00;99036.06;5074545;28;20495;-59
2022/11/14 02:20:11;;;;;;;12.88;7.82;;;;;;;9.74;100.00;99034.94;5087554;28;20039;-61
2022/11/14 02:22:38;;;;;;;12.18;7.00;;;;;;;9.75;100.00;99034.00;5092494;28;20036;-66
2022/11/14 02:25:04;;;;;;;10.40;7.10;;;;;;;9.74;100.00;99027.16;5095056;28;20019;-58
2022/11/14 02:27:32;;;;;;;12.27;7.65;;;;;;;9.73;100.00;99027.25;5100668;28;20035;-63
2022/11/14 02:30:11;;;;;;;12.93;8.02;;;;;;;9.68;100.00;99032.88;5084163;28;20040;-62
2022/11/14 02:32:36;;;;;;;12.60;7.72;;;;;;;9.63;100.00;99019.44;5090501;28;20515;-62
2022/11/14 02:35:02;;;;;;;12.18;7.88;;;;;;;9.66;100.00;99021.78;5088757;28;20039;-64
2022/11/14 02:37:27;;;;;;;12.45;7.40;;;;;;;9.65;100.00;99025.31;5077580;28;20032;-60
2022/11/14 02:39:52;;;;;;;13.88;8.63;;;;;;;9.72;100.00;99018.66;5089851;28;20028;-59
2022/11/14 02:42:18;;;;;;;11.82;8.20;;;;;;;9.77;100.00;99016.50;5090215;28;20036;-62
2022/11/14 02:44:43;;;;;;;12.10;7.93;;;;;;;9.80;100.00;99021.44;5091425;28;20528;-62
2022/11/14 02:47:08;;;;;;;11.80;7.18;;;;;;;9.65;100.00;98995.94;5094562;28;20043;-60
2022/11/14 02:49:34;;;;;;;10.88;6.97;;;;;;;9.63;100.00;98994.28;5095810;28;20123;-61
2022/11/14 02:51:59;;;;;;;12.75;7.90;;;;;;;9.85;100.00;99021.03;5077158;28;20102;-62
2022/11/14 02:54:25;;;;;;;12.98;8.20;;;;;;;9.70;100.00;98997.19;5119606;27;20023;-65
2022/11/14 02:56:50;;;;;;;13.90;7.65;;;;;;;9.83;100.00;99017.75;5088516;28;20030;-60
2022/11/14 02:59:15;;;;;;;11.73;7.40;;;;;;;9.56;100.00;99010.50;5097843;28;20111;-61
2022/11/14 03:01:41;;;;;;;11.75;7.53;;;;;;;9.37;100.00;99009.47;5096805;28;20429;-61
2022/11/14 03:04:07;;;;;;;10.48;7.00;;;;;;;9.45;100.00;99010.59;5101522;28;20081;-63
2022/11/14 03:06:33;;;;;;;11.95;8.30;;;;;;;9.51;100.00;99008.31;5095927;28;20363;-60
2022/11/14 03:08:58;;;;;;;11.85;7.88;;;;;;;9.53;100.00;99014.19;5102264;28;20035;-61
2022/11/14 03:11:24;;;;;;;11.93;7.90;;;;;;;9.50;100.00;99000.66;5101579;28;20561;-62
2022/11/14 03:13:49;;;;;;;11.35;7.88;;;;;;;9.59;100.00;99010.28;5098176;28;20055;-62
2022/11/14 03:16:15;;;;;;;10.80;7.30;;;;;;;9.37;100.00;98973.13;5089515;28;20031;-62
2022/11/14 03:18:40;;;;;;;11.25;7.47;;;;;;;9.54;100.00;99002.84;5100137;28;20044;-62
2022/11/14 03:21:14;;;;;;;11.90;8.00;;;;;;;9.60;100.00;99014.50;5081787;28;20058;-65
2022/11/14 03:23:40;;;;;;;14.68;8.15;;;;;;;9.34;100.00;98972.56;5130575;27;20039;-61
2022/11/14 03:26:07;;;;;;;13.32;8.50;;;;;;;9.64;100.00;99008.13;5095390;27;20050;-61
2022/11/14 03:28:32;;;;;;;12.60;7.93;;;;;;;9.57;100.00;99012.19;5098990;28;20103;-58
2022/11/14 03:30:58;;;;;;;12.50;7.72;;;;;;;9.60;100.00;99014.50;5095968;27;20124;-60
2022/11/14 03:33:24;;;;;;;13.43;8.43;;;;;;;9.64;100.00;99013.31;5088386;28;20106;-60
2022/11/14 03:35:49;;;;;;;14.65;8.32;;;;;;;9.41;100.00;98977.09;5094399;28;20058;-59
2022/11/14 03:38:16;;;;;;;13.60;8.85;;;;;;;9.62;100.00;99010.03;5070379;28;20110;-62
2022/11/14 03:40:41;;;;;;;12.82;8.32;;;;;;;9.61;100.00;99014.38;5069518;28;20115;-63
2022/11/14 03:43:07;;;;;;;14.13;8.50;;;;;;;9.61;100.00;99013.56;5086735;28;20462;-62
2022/11/14 03:45:32;;;;;;;13.48;8.70;;;;;;;9.55;100.00;99016.69;5086245;28;20058;-63
2022/11/14 03:47:58;;;;;;;13.15;8.82;;;;;;;9.49;100.00;99001.59;5086358;28;20838;-61
2022/11/14 03:50:23;;;;;;;13.00;8.52;;;;;;;9.21;100.00;98975.34;5090858;28;20028;-60
2022/11/14 03:52:49;;;;;;;13.25;8.68;;;;;;;9.40;100.00;99017.00;5115330;27;20036;-62
2022/11/14 03:55:14;;;;;;;14.90;8.88;;;;;;;9.23;100.00;98976.03;5089498;28;20035;-61
2022/11/14 03:57:40;;;;;;;17.08;9.82;;;;;;;9.47;100.00;99016.47;5094955;28;20044;-63
2022/11/14 04:00:06;;;;;;;13.98;9.77;;;;;;;9.45;100.00;99013.19;5092541;28;20108;-62
2022/11/14 04:02:31;;;;;;;16.90;10.18;;;;;;;9.46;100.00;99015.66;5124755;27;20039;-62
2022/11/14 04:04:57;;;;;;;15.18;9.98;;;;;;;9.47;100.00;99013.88;5107080;27;20024;-59
2022/11/14 04:07:22;;;;;;;14.05;9.85;;;;;;;9.48;100.00;99007.75;5091682;28;20042;-63
2022/11/14 04:09:48;;;;;;;15.82;10.45;;;;;;;9.46;100.00;99009.66;5094539;28;20031;-60
2022/11/14 04:12:13;;;;;;;15.10;10.05;;;;;;;9.47;100.00;99012.09;5086185;28;20501;-59
2022/11/14 04:14:38;;;;;;;16.58;10.30;;;;;;;9.48;100.00;99015.53;5094988;28;20032;-60
2022/11/14 04:17:04;;;;;;;14.93;10.57;;;;;;;9.48;100.00;99013.75;5098471;28;20040;-59
2022/11/14 04:19:29;;;;;;;15.68;9.98;;;;;;;9.46;100.00;99014.84;5094215;28;20683;-66
2022/11/14 04:21:54;;;;;;;17.98;11.15;;;;;;;9.19;100.00;98970.28;5074538;28;20389;-62
2022/11/14 04:24:20;;;;;;;16.35;10.00;;;;;;;9.48;100.00;99012.94;5093149;28;20045;-62
2022/11/14 04:26:45;;;;;;;16.98;10.50;;;;;;;9.49;100.00;99011.97;5111462;27;20126;-60
2022/11/14 04:29:11;;;;;;;16.08;10.60;;;;;;;9.49;100.00;99019.75;5092367;28;20028;-63
2022/11/14 04:31:36;;;;;;;16.15;9.20;;;;;;;9.43;100.00;99010.72;5097626;28;20020;-62
2022/11/14 04:34:01;;;;;;;14.73;10.07;;;;;;;9.47;100.00;99017.28;5078730;28;20051;-60
2022/11/14 04:36:27;;;;;;;13.45;8.88;;;;;;;9.47;100.00;99004.31;5094206;27;20872;-60
2022/11/14 04:38:52;;;;;;;14.05;9.50;;;;;;;9.51;100.00;99005.72;5096320;28;20038;-60
2022/11/14 04:41:18;;;;;;;14.25;9.63;;;;;;;9.29;100.00;98972.09;5094703;28;20090;-61
2022/11/14 04:43:43;;;;;;;16.05;10.35;;;;;;;9.46;100.00;99000.09;5097293;28;20062;-58
2022/11/14 04:46:08;;;;;;;15.40;10.32;;;;;;;9.47;100.00;98993.94;5087161;28;20099;-61
2022/11/14 04:48:34;;;;;;;16.35;10.52;;;;;;;9.56;100.00;99005.31;5088515;28;20032;-62
2022/11/14 04:50:59;;;;;;;17.17;10.73;;;;;;;9.46;100.00;99002.69;5118666;27;20057;-62
2022/11/14 04:53:24;;;;;;;15.07;10.57;;;;;;;9.52;100.00;99009.94;5114554;27;20042;-62
2022/11/14 04:55:50;;;;;;;15.32;10.23;;;;;;;9.47;100.00;99012.09;5093191;28;20051;-64
2022/11/14 04:58:15;;;;;;;15.13;10.32;;;;;;;9.49;100.00;99012.81;5093623;28;20438;-60
2022/11/14 05:00:41;;;;;;;17.95;11.32;;;;;;;9.16;100.00;98980.09;5091674;28;20031;-59
2022/11/14 05:03:07;;;;;;;15.18;10.52;;;;;;;9.41;100.00;99015.22;5092401;28;20043;-62
2022/11/14 05:05:32;;;;;;;16.73;9.82;;;;;;;9.41;100.00;99018.63;5088620;28;20024;-63
2022/11/14 05:07:58;;;;;;;17.95;11.30;;;;;;;9.12;100.00;98983.88;5087492;28;20076;-61
2022/11/14 05:10:23;;;;;;;15.63;10.18;;;;;;;9.32;100.00;99014.19;5092583;27;20486;-59
2022/11/14 05:12:52;;;;;;;15.88;11.00;;;;;;;9.20;100.00;98994.47;5098159;28;20097;-62
2022/11/14 05:15:17;;;;;;;16.67;11.38;;;;;;;9.17;100.00;98987.75;5095186;27;20019;-59
2022/11/14 05:17:43;;;;;;;15.95;10.75;;;;;;;9.17;100.00;98977.38;5090841;28;20093;-61
2022/11/14 05:20:09;;;;;;;17.42;11.32;;;;;;;9.45;100.00;99021.78;5097215;28;20080;-59
2022/11/14 05:22:34;;;;;;;17.88;11.45;;;;;;;9.15;100.00;98973.28;5088485;28;20934;-60
2022/11/14 05:25:00;;;;;;;16.55;11.18;;;;;;;9.33;100.00;99013.25;5092821;28;20494;-62
2022/11/14 05:27:25;;;;;;;18.08;12.07;;;;;;;9.45;100.00;99024.38;5092274;28;20133;-61
2022/11/14 05:29:51;;;;;;;17.10;11.25;;;;;;;9.47;100.00;99019.88;5111747;27;20428;-61
2022/11/14 05:32:16;;;;;;;18.35;11.32;;;;;;;9.33;100.00;99010.66;5111487;27;20040;-61
2022/11/14 05:34:42;;;;;;;17.33;11.68;;;;;;;9.40;100.00;99019.59;5095847;28;20035;-60
2022/11/14 05:37:07;;;;;;;16.60;11.82;;;;;;;9.49;100.00;99015.41;5095875;28;20066;-60
2022/11/14 05:39:33;;;;;;;18.67;12.48;;;;;;;9.50;100.00;99031.81;5097050;28;20059;-59
2022/11/14 05:41:58;;;;;;;17.35;11.13;;;;;;;9.22;100.00;98982.19;5095581;28;20032;-59
2022/11/14 05:44:24;;;;;;;18.75;12.05;;;;;;;9.52;100.00;99037.69;5090370;28;20486;-57
2022/11/14 05:46:50;;;;;;;17.92;11.45;;;;;;;9.49;100.00;99036.19;5093669;28;20031;-63
2022/11/14 05:49:15;;;;;;;17.63;11.93;;;;;;;9.53;100.00;99039.34;5111747;27;20030;-59
2022/11/14 05:51:40;;;;;;;16.33;11.25;;;;;;;9.48;100.00;99046.69;5089281;27;20044;-58
2022/11/14 05:54:06;;;;;;;17.02;10.43;;;;;;;9.49;100.00;99045.72;5096079;28;20107;-59
2022/11/14 05:56:31;;;;;;;16.83;11.05;;;;;;;9.37;100.00;99043.19;5088537;28;20062;-61
2022/11/14 05:58:57;;;;;;;16.40;10.95;;;;;;;9.36;100.00;99046.75;5088531;28;20489;-59
2022/11/14 06:01:22;;;;;;;16.83;11.13;;;;;;;9.42;100.00;99055.81;5107441;27;20080;-67
2022/11/14 06:03:48;;;;;;;15.43;10.82;;;;;;;9.20;100.00;99015.22;5091638;28;20081;-58
2022/11/14 06:06:16;;;;;;;16.17;11.13;;;;;;;9.24;100.00;99004.47;5095250;28;20112;-60
2022/11/14 06:08:42;;;;;;;17.17;11.30;;;;;;;9.30;100.00;99028.25;5079287;28;20035;-59
2022/11/14 06:11:10;;;;;;;17.33;12.02;;;;;;;9.20;100.00;99012.63;5091381;28;20540;-59
2022/11/14 06:13:36;;;;;;;18.60;12.52;;;;;;;9.45;100.00;99058.13;5086641;28;21040;-61
2022/11/14 06:16:07;;;;;;;19.75;11.70;;;;;;;9.48;100.00;99059.66;5091134;28;20120;-61
2022/11/14 06:18:33;;;;;;;16.70;11.13;;;;;;;9.35;100.00;99060.66;5089768;28;20514;-59
2022/11/14 06:21:04;;;;;;;14.70;10.20;;;;;;;9.37;100.00;99063.97;5079908;28;20043;-65
2022/11/14 06:23:29;;;;;;;16.63;10.10;;;;;;;9.35;100.00;99068.47;5112614;27;20130;-60
2022/11/14 06:26:00;;;;;;;14.98;10.60;;;;;;;9.22;100.00;99062.63;5095345;28;20482;-61
2022/11/14 06:28:25;;;;;;;16.27;10.60;;;;;;;9.09;100.00;99060.22;5076259;28;20031;-63
2022/11/14 06:30:51;;;;;;;17.38;11.13;;;;;;;9.17;100.00;99063.00;5095314;27;21005;-59
2022/11/14 06:33:16;;;;;;;15.68;10.80;;;;;;;9.32;100.00;99078.25;5093494;28;20074;-62
2022/11/14 06:35:42;;;;;;;18.35;11.40;;;;;;;9.35;100.00;99070.22;5087801;28;20019;-62
2022/11/14 06:38:07;;;;;;;15.68;10.73;;;;;;;9.42;100.00;99072.19;5114237;28;20034;-59
2022/11/14 06:40:32;;;;;;;16.42;11.60;;;;;;;9.46;100.00;99074.56;5098430;28;20102;-60
2022/11/14 06:42:58;;;;;;;17.40;11.60;;;;;;;9.04;100.00;99036.41;5077356;28;20042;-62
2022/11/14 06:45:23;;;;;;;16.08;11.00;;;;;;;9.40;100.00;99078.44;5098611;28;20521;-59
2022/11/14 06:47:49;;;;;;;16.83;10.82;;;;;;;9.23;100.00;99051.28;5089425;28;20081;-60
2022/11/14 06:50:14;;;;;;;16.50;9.88;;;;;;;9.34;100.00;99082.38;5073494;28;20028;-62
2022/11/14 06:52:39;;;;;;;16.45;11.27;;;;;;;9.39;100.00;99085.41;5088156;28;20114;-62
2022/11/14 06:55:05;;;;;;;16.10;10.18;;;;;;;9.44;100.00;99085.06;5094920;28;20193;-62
2022/11/14 06:57:30;;;;;;;15.43;11.23;;;;;;;9.47;100.00;99087.38;5083563;28;20134;-63
2022/11/14 06:59:56;;;;;;;16.33;11.38;;;;;;;9.42;100.00;99095.56;5071067;28;20550;-61
2022/11/14 07:02:21;;;;;;;16.15;10.68;;;;;;;9.41;100.00;99093.09;5088168;28;20036;-64
2022/11/14 07:04:47;;;;;;;15.88;10.77;;;;;;;9.37;100.00;99092.50;5089624;28;20462;-60
2022/11/14 07:07:12;;;;;;;14.85;10.02;;;;;;;9.32;100.00;99110.22;5096132;28;20027;-60
2022/11/14 07:09:38;;;;;;;15.20;10.05;;;;;;;9.36;100.00;99116.84;5086986;28;20021;-59
2022/11/14 07:12:03;;;;;;;15.48;10.10;;;;;;;9.35;100.00;99120.34;5094600;28;20032;-62
2022/11/14 07:14:28;;;;;;;14.68;10.00;;;;;;;9.28;100.00;99121.00;5085823;28;20053;-59
2022/11/14 07:16:54;;;;;;;18.42;10.10;;;;;;;9.32;100.00;99112.81;5085699;28;20110;-60
2022/11/14 07:19:19;;;;;;;13.77;9.57;;;;;;;9.33;100.00;99119.66;5096360;28;20054;-62
2022/11/14 07:21:45;;;;;;;14.80;10.35;;;;;;;9.33;100.00;99118.84;5092159;28;20112;-60
2022/11/14 07:24:10;;;;;;;15.77;10.55;;;;;;;9.31;100.00;99113.78;5100424;28;20031;-62
2022/11/14 07:26:36;;;;;;;14.07;9.98;;;;;;;9.22;100.00;99109.34;5087931;28;20020;-62
2022/11/14 07:29:01;;;;;;;16.67;10.82;;;;;;;9.36;100.00;99126.38;5111722;28;20059;-59
2022/11/14 07:31:27;;;;;;;15.23;9.68;;;;;;;9.35;100.00;99116.94;5111578;27;20038;-59
2022/11/14 07:33:53;;;;;;;16.30;10.25;;;;;;;9.40;100.00;99113.03;5093160;28;20045;-60
2022/11/14 07:36:18;;;;;;;13.95;9.45;;;;;;;9.31;100.00;99076.59;5116131;27;20109;-61
2022/11/14 07:38:44;;;;;;;13.73;9.63;;;;;;;9.41;100.00;99082.69;5100486;27;20036;-61
2022/11/14 07:41:11;;;;;;;14.80;9.93;;;;;;;9.54;100.00;99117.06;5095797;28;20671;-60
2022/11/14 07:43:37;;;;;;;14.95;10.00;;;;;;;9.30;100.00;99101.75;5098308;28;20073;-61
2022/11/14 07:46:05;;;;;;;17.60;11.13;;;;;;;9.48;100.00;99130.56;5095293;28;20498;-61
2022/11/14 07:48:32;;;;;;;15.02;10.15;;;;;;;9.45;100.00;99135.19;5098755;28;20028;-63
2022/11/14 07:50:59;;;;;;;14.60;10.05;;;;;;;9.10;100.00;99063.63;5100394;28;20031;-60
2022/11/14 07:53:25;;;;;;;16.55;9.80;;;;;;;9.55;100.00;99130.91;5081496;28;20832;-60
2022/11/14 07:55:50;;;;;;;15.00;9.90;;;;;;;9.52;100.00;99131.97;5081149;28;20751;-63
2022/11/14 07:58:15;;;;;;;15.00;10.15;;;;;;;9.39;100.00;99107.97;5113908;27;20028;-60
2022/11/14 08:00:41;;;;;;;14.45;9.20;;;;;;;9.55;100.00;99139.50;5080428;28;20065;-62
2022/11/14 08:03:09;;;;;;;14.55;10.20;;;;;;;9.52;100.00;99144.13;5097039;28;20023;-63
2022/11/14 08:05:35;;;;;;;16.95;10.65;;;;;;;9.50;100.00;99139.06;5096809;28;20050;-60
2022/11/14 08:08:00;;;;;;;14.70;9.77;;;;;;;9.53;100.00;99143.19;5089998;28;20024;-61
2022/11/14 08:10:26;;;;;;;16.52;9.90;;;;;;;9.63;100.00;99144.88;5094664;28;20031;-64
2022/11/14 08:12:59;;;;;;;15.77;9.65;;;;;;;9.65;100.00;99139.56;5085914;27;20502;-62
2022/11/14 08:15:26;;;;;;;15.80;9.77;;;;;;;9.64;100.00;99137.94;5100787;28;20031;-59
2022/11/14 08:17:51;;;;;;;13.82;9.40;;;;;;;9.68;100.00;99143.69;5098655;28;20027;-61
2022/11/14 08:20:17;;;;;;;16.42;9.88;;;;;;;9.50;100.00;99109.69;5098834;27;20043;-61
2022/11/14 08:22:42;;;;;;;17.08;10.52;;;;;;;9.72;100.00;99152.88;5090375;27;20031;-61
2022/11/14 08:25:08;;;;;;;16.33;10.52;;;;;;;9.70;100.00;99147.00;5100877;28;20110;-61
2022/11/14 08:27:33;;;;;;;17.02;10.63;;;;;;;9.67;100.00;99150.66;5095196;28;20028;-59
2022/11/14 08:29:58;;;;;;;15.98;9.95;;;;;;;9.72;100.00;99148.50;5116829;27;20503;-59
2022/11/14 08:32:24;;;;;;;17.35;11.20;;;;;;;9.68;100.00;99160.09;5097041;27;20533;-59
2022/11/14 08:34:49;;;;;;;15.52;10.73;;;;;;;9.60;100.00;99154.69;5082875;27;20034;-61
2022/11/14 08:37:15;;;;;;;16.50;10.98;;;;;;;9.68;100.00;99160.09;5100497;28;20057;-62
2022/11/14 08:39:40;;;;;;;16.30;10.52;;;;;;;9.73;100.00;99157.94;5092446;28;20113;-62
2022/11/14 08:42:06;;;;;;;16.38;11.68;;;;;;;9.79;100.00;99162.63;5092797;28;20023;-62
2022/11/14 08:44:31;;;;;;;17.50;11.30;;;;;;;9.76;100.00;99167.25;5114293;27;20042;-61
2022/11/14 08:46:59;;;;;;;16.15;10.88;;;;;;;9.72;100.00;99160.66;5090622;27;20038;-64
2022/11/14 08:49:25;;;;;;;17.25;11.23;;;;;;;9.79;100.00;99167.00;5072034;28;20024;-60
2022/11/14 08:51:51;;;;;;;16.77;11.48;;;;;;;9.74;100.00;99172.56;5076742;28;20077;-60
2022/11/14 08:54:18;;;;;;;15.35;10.32;;;;;;;9.76;100.00;99170.66;5076291;28;20489;-61
2022/11/14 08:56:43;;;;;;;18.25;10.82;;;;;;;9.63;100.00;99180.41;5071033;28;20028;-64
2022/11/14 08:59:08;;;;;;;16.45;10.77;;;;;;;9.49;100.00;99152.16;5111782;27;20662;-61
2022/11/14 09:01:34;;;;;;;16.80;11.15;;;;;;;9.62;100.00;99179.59;5090218;28;20310;-60
2022/11/14 09:03:59;;;;;;;17.98;11.45;;;;;;;9.64;100.00;99182.06;5077798;28;20737;-60
2022/11/14 09:06:25;;;;;;;18.00;11.10;;;;;;;9.44;100.00;99136.97;5094558;28;20108;-63
2022/11/14 09:08:50;;;;;;;19.20;11.90;;;;;;;9.75;100.00;99176.81;5097194;28;20047;-62
2022/11/14 09:11:16;;;;;;;16.08;10.95;;;;;;;9.56;100.00;99148.91;5107123;27;20024;-59
2022/11/14 09:13:41;;;;;;;17.67;12.20;;;;;;;9.72;100.00;99178.84;5092842;28;20043;-61
2022/11/14 09:16:06;;;;;;;17.70;11.40;;;;;;;9.69;100.00;99187.72;5096946;28;20032;-62
2022/11/14 09:18:32;;;;;;;16.65;11.13;;;;;;;9.71;100.00;99177.19;5094232;28;20066;-62
2022/11/14 09:21:06;;;;;;;19.23;11.35;;;;;;;9.73;100.00;99172.69;5112972;27;20032;-58
2022/11/14 09:23:32;;;;;;;16.83;11.00;;;;;;;9.63;100.00;99144.88;5088593;27;20036;-61
2022/11/14 09:26:02;;;;;;;18.65;11.77;;;;;;;9.81;100.00;99176.31;5091712;28;20032;-59
2022/11/14 09:28:28;;;;;;;18.13;11.70;;;;;;;9.82;100.00;99177.97;5111582;27;20024;-60
2022/11/14 09:30:59;;;;;;;16.50;11.40;;;;;;;9.79;100.00;99180.00;5098010;28;20712;-59
2022/11/14 09:33:24;;;;;;;16.85;11.40;;;;;;;9.69;100.00;99151.38;5093435;28;20077;-59
2022/11/14 09:35:56;;;;;;;16.92;10.63;;;;;;;9.70;100.00;99152.19;5095205;28;20107;-62
2022/11/14 09:38:21;;;;;;;16.70;11.95;;;;;;;9.63;100.00;99144.88;5076214;28;20569;-67
2022/11/14 09:41:17;;;;;;;17.45;10.95;;;;;;;9.77;100.00;99189.69;5097302;28;20050;-60
2022/11/14 09:43:45;;;;;;;17.77;11.63;;;;;;;9.63;100.00;99199.41;5094509;28;20111;-63
2022/11/14 09:46:43;;;;;;;16.80;11.38;;;;;;;9.77;100.00;99194.88;5094133;28;20841;-63
2022/11/14 09:49:33;;;;;;;15.55;9.98;;;;;;;9.56;100.00;99193.06;5112578;27;20080;-59
2022/11/14 09:52:00;;;;;;;;;;;;;;;9.64;100.00;99202.84;5089758;28;20028;-59
2022/11/14 09:54:28;;;;;;;13.98;9.52;;;;;;;9.32;100.00;99164.72;5093237;28;20298;-62
2022/11/14 09:56:53;;;;;;;13.27;8.50;;;;;;;9.47;100.00;99198.19;5069856;28;20032;-61
2022/11/14 09:59:19;;;;;;;13.02;8.65;;;;;;;9.53;100.00;99193.31;5097089;27;20728;-60
2022/11/14 10:01:53;;;;;;;15.70;8.55;;;;;;;9.67;100.00;99196.56;5097190;27;20040;-62
2022/11/14 10:04:25;;;;;;;16.88;9.70;;;;;;;9.63;100.00;99188.22;5107800;27;20145;-62
2022/11/14 10:06:57;;;;;;;12.45;7.85;;;;;;;9.48;100.00;99163.50;5098308;27;20034;-64
2022/11/14 10:09:39;;;;;;;10.30;6.97;;;;;;;9.63;100.00;99193.41;5093193;28;20103;-63
2022/11/14 10:12:21;;;;;;;11.65;6.40;;;;;;;9.57;100.00;99189.53;5091392;28;20032;-62
2022/11/14 10:15:12;;;;;;;10.20;6.30;;;;;;;9.52;100.00;99193.44;5079291;28;20038;-63
2022/11/14 10:17:45;;;;;;;11.10;7.47;;;;;;;9.32;100.00;99156.94;5108450;27;20035;-61
2022/11/14 10:20:25;;;;;;;10.57;7.22;;;;;;;9.47;100.00;99183.41;5092287;27;20042;-66
2022/11/14 10:23:23;;;;;;;13.40;6.90;;;;;;;9.45;100.00;99195.69;5079113;28;20035;-63
2022/11/14 10:25:57;;;;;;;10.57;7.07;;;;;;;9.44;100.00;99188.88;5084723;28;20047;-60
2022/11/14 10:29:00;;;;;;;9.35;6.10;;;;;;;9.44;100.00;99188.88;5124434;27;20034;-63
2022/11/14 10:32:02;;;;;;;11.15;6.43;;;;;;;9.26;100.00;99148.84;5087373;28;20034;-64
2022/11/14 10:34:37;;;;;;;9.77;6.40;;;;;;;9.46;100.00;99186.16;5109661;27;20032;-62
2022/11/14 10:37:17;;;;;;;8.85;5.82;;;;;;;9.37;100.00;99178.16;5077215;28;20047;-62
2022/11/14 10:39:43;;;;;;;11.20;6.55;;;;;;;9.39;100.00;99178.84;5075937;28;20039;-60
2022/11/14 10:42:13;;;;;;;9.30;6.00;;;;;;;9.36;100.00;99170.50;5089365;28;20088;-60
2022/11/14 10:44:50;;;;;;;7.95;5.30;;;;;;;9.41;100.00;99170.94;5101691;28;20032;-63
2022/11/14 10:47:17;;;;;;;8.18;5.18;;;;;;;9.40;100.00;99174.47;5072858;28;20128;-62
2022/11/14 10:49:45;;;;;;;7.75;4.88;;;;;;;9.38;100.00;99177.22;5077643;28;20036;-60
2022/11/14 10:52:17;;;;;;;8.38;5.20;;;;;;;9.47;100.00;99172.22;5077498;28;20557;-62
2022/11/14 10:55:00;;;;;;;7.72;4.95;;;;;;;9.30;100.00;99142.44;5073963;28;20402;-62
2022/11/14 10:57:27;;;;;;;8.63;4.95;;;;;;;9.34;100.00;99152.44;5093105;28;20027;-61
2022/11/14 10:59:54;;;;;;;6.82;4.57;;;;;;;9.41;100.00;99163.16;5087496;28;20039;-61
2022/11/14 11:02:19;;;;;;;7.30;4.50;;;;;;;9.42;100.00;99170.81;5076786;28;20055;-64
2022/11/14 11:04:45;;;;;;;7.00;4.25;;;;;;;9.52;100.00;99173.50;5090207;28;20575;-60
2022/11/14 11:11:28;;;;;;;6.75;4.32;;;;;;;9.54;100.00;99163.81;5089163;28;20107;-65
2022/11/14 11:12:47;;;;;;;9.40;5.20;;;;;;;9.47;100.00;99152.28;5089451;27;20611;-64
2022/11/14 11:15:13;;;;;;;7.70;4.90;;;;;;;9.60;100.00;99165.06;5115492;27;20529;-62
2022/11/14 11:17:53;;;;;;;7.05;4.47;;;;;;;9.63;100.00;99149.25;5115985;27;20039;-61
2022/11/14 11:20:30;;;;;;;7.05;3.88;;;;;;;9.65;100.00;99151.72;5116675;27;20028;-60
2022/11/14 11:23:05;;;;;;;7.43;4.70;;;;;;;9.41;100.00;99122.44;5096377;28;20035;-61
2022/11/14 11:25:32;;;;;;;7.65;4.30;;;;;;;9.59;100.00;99148.69;5099413;28;20035;-61